TimeEDT,TemperatureF,Dew PointF,Humidity,Sea Level PressureIn,VisibilityMPH,Wind Direction,Wind SpeedMPH,Gust SpeedMPH,PrecipitationIn,Events,Conditions,WindDirDegrees,DateUTC
12:53 AM,63.0,39.0,41,30.22,10.0,NNE,12.7,-,N/A,,Clear,20,2013-03-28 04:53:00
1:53 AM,62.1,39.9,44,30.21,10.0,NNE,11.5,-,N/A,,Clear,20,2013-03-28 05:53:00
2:53 AM,62.1,39.9,44,30.20,10.0,North,11.5,18.4,N/A,,Clear,10,2013-03-28 06:53:00
3:53 AM,62.1,44.1,52,30.18,10.0,North,10.4,-,N/A,,Mostly Cloudy,10,2013-03-28 07:53:00
4:53 AM,61.0,46.0,58,30.18,10.0,NNE,10.4,19.6,N/A,,Scattered Clouds,20,2013-03-28 08:53:00
5:53 AM,61.0,43.0,52,30.17,10.0,NNE,12.7,-,N/A,,Partly Cloudy,20,2013-03-28 09:53:00
6:53 AM,61.0,44.1,54,30.19,10.0,NNE,12.7,20.7,N/A,,Mostly Cloudy,30,2013-03-28 10:53:00
7:53 AM,61.0,42.1,50,30.20,10.0,NNE,15.0,-,N/A,,Clear,30,2013-03-28 11:53:00
8:53 AM,62.1,42.1,48,30.22,10.0,NNE,13.8,20.7,N/A,,Partly Cloudy,30,2013-03-28 12:53:00
9:53 AM,63.0,43.0,48,30.25,10.0,NNE,10.4,21.9,N/A,,Mostly Cloudy,20,2013-03-28 13:53:00
10:53 AM,66.9,46.0,47,30.26,10.0,North,13.8,18.4,N/A,,Clear,10,2013-03-28 14:53:00
11:53 AM,70.0,46.0,42,30.26,10.0,NNE,11.5,-,N/A,,Clear,20,2013-03-28 15:53:00
12:53 PM,72.0,48.0,43,30.25,10.0,North,10.4,-,N/A,,Clear,10,2013-03-28 16:53:00
1:53 PM,73.9,46.9,38,30.22,10.0,North,10.4,-,N/A,,Clear,360,2013-03-28 17:53:00
2:53 PM,73.9,46.0,37,30.20,10.0,North,6.9,-,N/A,,Clear,10,2013-03-28 18:53:00
3:53 PM,73.9,50.0,43,30.18,10.0,North,8.1,-,N/A,,Clear,350,2013-03-28 19:53:00
4:53 PM,73.0,48.0,41,30.17,10.0,NNW,4.6,-,N/A,,Clear,340,2013-03-28 20:53:00
5:53 PM,72.0,48.0,43,30.17,10.0,Variable,5.8,-,N/A,,Clear,0,2013-03-28 21:53:00
6:53 PM,69.1,48.0,47,30.19,10.0,North,4.6,-,N/A,,Clear,350,2013-03-28 22:53:00
7:53 PM,66.9,48.9,52,30.20,10.0,Calm,Calm,-,N/A,,Clear,0,2013-03-28 23:53:00
8:53 PM,66.9,50.0,54,30.22,10.0,NNE,3.5,-,N/A,,Clear,20,2013-03-29 00:53:00
9:53 PM,66.0,51.1,59,30.23,10.0,NNE,3.5,-,N/A,,Clear,20,2013-03-29 01:53:00
10:53 PM,66.9,52.0,59,30.24,10.0,NNE,4.6,-,N/A,,Clear,30,2013-03-29 02:53:00
11:53 PM,66.9,52.0,59,30.25,10.0,NE,5.8,-,N/A,,Clear,40,2013-03-29 03:53:00